Time;durP1;ratioP1;P1;durP2;ratioP2;P2;SDS_P1;SDS_P2;PMS_P1;PMS_P2;Temp;Humidity;BMP_temperature;BMP_pressure;BME280_temperature;BME280_humidity;BME280_pressure;Samples;Min_cycle;Max_cycle;Signal;HPM_P1;HPM_P2
2024/01/22 00:00:08;;;;;;;214.73;56.28;;;;;;;;;;4992543;28;20194;-43
2024/01/22 00:02:34;;;;;;;213.35;55.90;;;;;;;;;;4995522;28;20196;-42
2024/01/22 00:05:00;;;;;;;214.38;55.40;;;;;;;;;;4995403;28;20667;-43
2024/01/22 00:07:26;;;;;;;216.30;58.00;;;;;;;;;;4994973;28;20186;-43
2024/01/22 00:09:52;;;;;;;214.63;56.17;;;;;;;;;;4994677;28;20997;-42
2024/01/22 00:12:18;;;;;;;215.37;57.43;;;;;;;;;;4995052;28;20249;-43
2024/01/22 00:14:46;;;;;;;215.03;56.17;;;;;;;;;;4994899;28;20413;-43
2024/01/22 00:17:13;;;;;;;215.18;57.13;;;;;;;;;;4995001;28;20414;-42
2024/01/22 00:19:39;;;;;;;215.40;57.42;;;;;;;;;;4995051;28;20199;-43
2024/01/22 00:22:06;;;;;;;184.53;54.47;;;;;;;;;;4994801;28;20538;-43
2024/01/22 00:24:32;;;;;;;125.70;47.78;;;;;;;;;;4994817;28;20420;-43
2024/01/22 00:26:57;;;;;;;146.43;43.37;;;;;;;;;;4994817;28;20222;-42
2024/01/22 00:29:23;;;;;;;206.40;55.03;;;;;;;;;;4994340;28;20560;-43
2024/01/22 00:31:49;;;;;;;201.13;55.03;;;;;;;;;;4995110;28;20413;-43
2024/01/22 00:34:15;;;;;;;216.47;57.90;;;;;;;;;;4994630;28;20417;-43
2024/01/22 00:36:41;;;;;;;219.80;59.30;;;;;;;;;;4994313;28;21148;-43
2024/01/22 00:39:07;;;;;;;219.05;57.90;;;;;;;;;;4994601;28;20796;-43
2024/01/22 00:41:33;;;;;;;215.40;56.25;;;;;;;;;;4994316;28;20199;-44
2024/01/22 00:43:59;;;;;;;215.50;56.70;;;;;;;;;;4994449;28;20187;-43
2024/01/22 00:46:25;;;;;;;214.83;57.23;;;;;;;;;;4994431;28;20418;-43
2024/01/22 00:48:51;;;;;;;220.90;60.53;;;;;;;;;;4993925;28;20472;-42
2024/01/22 00:51:17;;;;;;;217.47;58.50;;;;;;;;;;4994100;28;20434;-42
2024/01/22 00:53:43;;;;;;;218.90;58.92;;;;;;;;;;4994281;28;20902;-42
2024/01/22 00:56:10;;;;;;;222.57;60.27;;;;;;;;;;4994321;28;20186;-43
2024/01/22 00:58:36;;;;;;;218.80;58.45;;;;;;;;;;4994445;28;20409;-42
2024/01/22 01:01:02;;;;;;;165.80;53.30;;;;;;;;;;4994117;28;20269;-43
2024/01/22 01:03:28;;;;;;;126.63;49.42;;;;;;;;;;4994215;28;20427;-43
2024/01/22 01:05:54;;;;;;;217.93;58.20;;;;;;;;;;4993891;28;20538;-43
2024/01/22 01:08:19;;;;;;;217.33;57.83;;;;;;;;;;4994339;28;20441;-42
2024/01/22 01:10:45;;;;;;;218.03;58.70;;;;;;;;;;4993447;28;20531;-42
2024/01/22 01:13:11;;;;;;;218.83;59.23;;;;;;;;;;4993080;28;20418;-43
2024/01/22 01:15:37;;;;;;;220.83;59.97;;;;;;;;;;4993958;28;20468;-44
2024/01/22 01:18:03;;;;;;;217.33;58.17;;;;;;;;;;4994092;28;20412;-43
2024/01/22 01:20:29;;;;;;;221.32;60.45;;;;;;;;;;4993340;28;20438;-43
2024/01/22 01:22:55;;;;;;;217.95;58.88;;;;;;;;;;4993801;28;20181;-43
2024/01/22 01:25:21;;;;;;;219.00;58.67;;;;;;;;;;4993892;28;20757;-43
2024/01/22 01:27:47;;;;;;;217.93;58.20;;;;;;;;;;4985627;28;20802;-42
2024/01/22 01:30:13;;;;;;;215.90;57.42;;;;;;;;;;4993187;28;20465;-43
2024/01/22 01:32:39;;;;;;;215.60;59.00;;;;;;;;;;4993664;28;20205;-43
2024/01/22 01:35:05;;;;;;;197.83;57.60;;;;;;;;;;4993442;28;20405;-42
2024/01/22 01:37:31;;;;;;;104.20;48.72;;;;;;;;;;4993558;28;20452;-43
2024/01/22 01:39:57;;;;;;;37.70;33.83;;;;;;;;;;4993342;28;20230;-43
2024/01/22 01:42:23;;;;;;;37.73;34.23;;;;;;;;;;4993509;28;20504;-43
2024/01/22 01:44:50;;;;;;;198.33;55.07;;;;;;;;;;4993583;28;20608;-43
2024/01/22 01:47:16;;;;;;;218.73;59.53;;;;;;;;;;4993530;28;20471;-43
2024/01/22 01:49:42;;;;;;;218.63;59.00;;;;;;;;;;4992809;28;20286;-43
2024/01/22 01:52:11;;;;;;;222.05;60.45;;;;;;;;;;4993293;28;20172;-42
2024/01/22 01:54:38;;;;;;;220.07;60.45;;;;;;;;;;4993410;28;20652;-43
2024/01/22 01:57:07;;;;;;;220.95;60.92;;;;;;;;;;4993502;28;20176;-43
2024/01/22 01:59:35;;;;;;;219.27;60.20;;;;;;;;;;4998842;28;20223;-42
2024/01/22 02:02:01;;;;;;;218.80;59.45;;;;;;;;;;4992503;28;20185;-44
2024/01/22 02:04:27;;;;;;;220.97;59.80;;;;;;;;;;4992423;28;20786;-42
2024/01/22 02:06:52;;;;;;;222.87;61.80;;;;;;;;;;4992557;28;20859;-43
2024/01/22 02:09:20;;;;;;;221.47;60.70;;;;;;;;;;4992134;28;20479;-43
2024/01/22 02:11:46;;;;;;;221.10;61.40;;;;;;;;;;4992695;28;20408;-43
2024/01/22 02:14:12;;;;;;;206.67;59.20;;;;;;;;;;4992839;28;20172;-43
2024/01/22 02:16:38;;;;;;;222.77;62.17;;;;;;;;;;4992591;28;20443;-44
2024/01/22 02:19:04;;;;;;;220.02;62.35;;;;;;;;;;4992426;28;20819;-42
2024/01/22 02:21:30;;;;;;;205.50;59.27;;;;;;;;;;4992844;28;20192;-42
2024/01/22 02:23:56;;;;;;;223.67;62.77;;;;;;;;;;4992615;28;20423;-42
2024/01/22 02:26:21;;;;;;;219.33;60.70;;;;;;;;;;4992628;28;20422;-43
2024/01/22 02:28:47;;;;;;;225.33;64.63;;;;;;;;;;4992355;28;20439;-43
2024/01/22 02:31:14;;;;;;;222.27;61.70;;;;;;;;;;4992535;28;20462;-43
2024/01/22 02:33:40;;;;;;;220.95;60.83;;;;;;;;;;4992730;28;20495;-43
2024/01/22 02:36:06;;;;;;;221.80;61.85;;;;;;;;;;4992451;28;20177;-43
2024/01/22 02:38:32;;;;;;;222.18;60.95;;;;;;;;;;4992568;28;20238;-43
2024/01/22 02:40:58;;;;;;;222.97;61.20;;;;;;;;;;4992219;28;20216;-43
2024/01/22 02:43:24;;;;;;;221.97;61.87;;;;;;;;;;4992357;28;20515;-43
2024/01/22 02:45:50;;;;;;;220.13;60.23;;;;;;;;;;4992440;28;20420;-43
2024/01/22 02:48:16;;;;;;;220.33;59.93;;;;;;;;;;4992661;28;20423;-43
2024/01/22 02:50:42;;;;;;;221.83;61.90;;;;;;;;;;4990762;28;20471;-43
2024/01/22 02:53:08;;;;;;;219.47;60.17;;;;;;;;;;4992523;28;20939;-43
2024/01/22 02:55:34;;;;;;;223.07;61.92;;;;;;;;;;4992461;28;20895;-43
2024/01/22 02:58:00;;;;;;;221.43;60.37;;;;;;;;;;4992533;28;20194;-43
2024/01/22 03:00:26;;;;;;;223.50;62.80;;;;;;;;;;4991882;28;20539;-43
2024/01/22 03:02:52;;;;;;;221.07;60.30;;;;;;;;;;4992292;28;20474;-42
2024/01/22 03:05:18;;;;;;;219.40;60.17;;;;;;;;;;4992322;28;20419;-42
2024/01/22 03:07:44;;;;;;;221.57;61.90;;;;;;;;;;4992370;28;20408;-43
2024/01/22 03:10:10;;;;;;;221.75;61.95;;;;;;;;;;4992103;28;20895;-43
2024/01/22 03:12:36;;;;;;;221.65;62.22;;;;;;;;;;4992242;28;20177;-42
2024/01/22 03:15:02;;;;;;;221.47;61.00;;;;;;;;;;4992150;28;20283;-43
2024/01/22 03:17:28;;;;;;;221.50;60.58;;;;;;;;;;4984943;28;20432;-43
2024/01/22 03:19:54;;;;;;;224.17;62.50;;;;;;;;;;4990624;28;20232;-43
2024/01/22 03:22:20;;;;;;;220.43;59.07;;;;;;;;;;4992274;28;20419;-42
2024/01/22 03:24:48;;;;;;;213.47;61.30;;;;;;;;;;4992034;28;20400;-43
2024/01/22 03:27:14;;;;;;;87.65;42.60;;;;;;;;;;4992071;28;20481;-43
2024/01/22 03:29:40;;;;;;;222.23;62.47;;;;;;;;;;4992105;28;20691;-42
2024/01/22 03:32:06;;;;;;;195.17;56.90;;;;;;;;;;4992141;28;20914;-43
2024/01/22 03:34:32;;;;;;;221.60;60.35;;;;;;;;;;4992192;28;20407;-43
2024/01/22 03:36:58;;;;;;;219.97;59.20;;;;;;;;;;4995939;28;20180;-43
2024/01/22 03:39:24;;;;;;;221.03;60.60;;;;;;;;;;4995543;28;20435;-43
2024/01/22 03:41:50;;;;;;;220.53;59.20;;;;;;;;;;4995754;28;20428;-43
2024/01/22 03:44:16;;;;;;;221.77;61.20;;;;;;;;;;4995649;28;20771;-44
2024/01/22 03:46:42;;;;;;;218.75;60.05;;;;;;;;;;4995775;28;20188;-43
2024/01/22 03:49:08;;;;;;;220.03;59.47;;;;;;;;;;4995570;28;20655;-42
2024/01/22 03:51:34;;;;;;;223.73;61.20;;;;;;;;;;4995822;28;20497;-42
2024/01/22 03:54:00;;;;;;;220.87;59.60;;;;;;;;;;4995698;28;20408;-43
2024/01/22 03:56:26;;;;;;;221.67;60.33;;;;;;;;;;4995405;28;20443;-43
2024/01/22 03:58:53;;;;;;;220.40;59.37;;;;;;;;;;4995078;28;20466;-44
2024/01/22 04:01:21;;;;;;;213.85;59.75;;;;;;;;;;4995024;28;20412;-43
2024/01/22 04:03:46;;;;;;;223.18;61.40;;;;;;;;;;4995206;28;20176;-43
2024/01/22 04:06:12;;;;;;;219.27;59.37;;;;;;;;;;4995189;28;20237;-43
2024/01/22 04:08:38;;;;;;;218.13;58.00;;;;;;;;;;4995074;28;20419;-44
2024/01/22 04:11:04;;;;;;;218.07;58.57;;;;;;;;;;4995115;28;20470;-43
2024/01/22 04:13:30;;;;;;;174.70;52.67;;;;;;;;;;4995809;28;20419;-43
2024/01/22 04:15:56;;;;;;;216.07;55.77;;;;;;;;;;4996112;28;20420;-42
2024/01/22 04:18:22;;;;;;;216.48;56.55;;;;;;;;;;4995618;28;20821;-43
2024/01/22 04:20:48;;;;;;;201.70;56.40;;;;;;;;;;4987181;28;20195;-43
2024/01/22 04:23:14;;;;;;;217.13;55.83;;;;;;;;;;4995631;28;20459;-42
2024/01/22 04:25:40;;;;;;;208.57;53.87;;;;;;;;;;4995354;28;20422;-43
2024/01/22 04:28:06;;;;;;;174.83;52.27;;;;;;;;;;4995184;28;20764;-42
2024/01/22 04:30:32;;;;;;;213.88;56.20;;;;;;;;;;4994357;28;20478;-43
2024/01/22 04:32:58;;;;;;;60.90;27.13;;;;;;;;;;4994714;28;20173;-43
2024/01/22 04:35:24;;;;;;;16.33;14.60;;;;;;;;;;4991668;28;20507;-43
2024/01/22 04:37:50;;;;;;;36.75;31.40;;;;;;;;;;4994507;28;20427;-43
2024/01/22 04:40:16;;;;;;;21.03;18.90;;;;;;;;;;4994337;28;20263;-43
2024/01/22 04:42:43;;;;;;;13.75;12.73;;;;;;;;;;4994761;28;21002;-43
2024/01/22 04:45:09;;;;;;;36.50;26.20;;;;;;;;;;4994907;28;20187;-44
2024/01/22 04:47:35;;;;;;;197.57;52.67;;;;;;;;;;4995130;28;20187;-43
2024/01/22 04:50:01;;;;;;;211.68;54.60;;;;;;;;;;4994679;28;20215;-44
2024/01/22 04:52:27;;;;;;;201.18;52.70;;;;;;;;;;4995005;28;20269;-44
2024/01/22 04:54:53;;;;;;;210.17;53.10;;;;;;;;;;4995171;28;20614;-44
2024/01/22 04:57:19;;;;;;;205.80;52.23;;;;;;;;;;4995050;28;20404;-44
2024/01/22 04:59:45;;;;;;;165.73;48.13;;;;;;;;;;4994370;28;21064;-43
2024/01/22 05:02:11;;;;;;;214.17;53.77;;;;;;;;;;4994860;28;20852;-44
2024/01/22 05:04:37;;;;;;;214.43;55.97;;;;;;;;;;4994853;28;20831;-44
2024/01/22 05:07:03;;;;;;;203.90;53.90;;;;;;;;;;4994574;28;20787;-44
2024/01/22 05:09:29;;;;;;;212.67;55.17;;;;;;;;;;4994012;28;20799;-44
2024/01/22 05:11:55;;;;;;;210.60;54.43;;;;;;;;;;4994421;28;20760;-44
2024/01/22 05:14:21;;;;;;;212.87;54.53;;;;;;;;;;4994161;28;20478;-44
2024/01/22 05:16:47;;;;;;;208.63;52.50;;;;;;;;;;4994430;28;20507;-43
2024/01/22 05:19:13;;;;;;;212.30;54.92;;;;;;;;;;4994018;28;20435;-44
2024/01/22 05:21:39;;;;;;;211.43;54.60;;;;;;;;;;4994048;28;20183;-43
2024/01/22 05:24:06;;;;;;;212.40;55.17;;;;;;;;;;4994461;28;20468;-43
2024/01/22 05:26:32;;;;;;;212.55;54.53;;;;;;;;;;4994066;28;20200;-44
2024/01/22 05:28:58;;;;;;;216.43;59.10;;;;;;;;;;4993692;28;20195;-43
2024/01/22 05:31:24;;;;;;;208.47;52.97;;;;;;;;;;4993290;28;20427;-43
2024/01/22 05:33:50;;;;;;;211.07;54.67;;;;;;;;;;4993669;28;20594;-43
2024/01/22 05:36:16;;;;;;;212.48;55.60;;;;;;;;;;4994268;28;20403;-43
2024/01/22 05:38:42;;;;;;;209.83;52.53;;;;;;;;;;4993980;28;20184;-43
2024/01/22 05:41:08;;;;;;;211.50;55.00;;;;;;;;;;4993046;28;20439;-43
2024/01/22 05:43:34;;;;;;;212.07;54.00;;;;;;;;;;4992990;28;20437;-44
2024/01/22 05:46:01;;;;;;;211.67;53.90;;;;;;;;;;4993300;28;20417;-43
2024/01/22 05:48:27;;;;;;;209.57;52.67;;;;;;;;;;4993114;28;20886;-44
2024/01/22 05:50:53;;;;;;;210.37;54.77;;;;;;;;;;4992858;28;20522;-44
2024/01/22 05:53:19;;;;;;;212.77;55.27;;;;;;;;;;4993099;28;20490;-44
2024/01/22 05:55:45;;;;;;;209.53;53.57;;;;;;;;;;4993078;28;20396;-44
2024/01/22 05:58:11;;;;;;;211.00;54.50;;;;;;;;;;4992353;28;20416;-44
2024/01/22 06:00:39;;;;;;;210.48;53.80;;;;;;;;;;4992612;28;20943;-44
2024/01/22 06:03:05;;;;;;;209.10;52.95;;;;;;;;;;4992963;28;20219;-44
2024/01/22 06:05:31;;;;;;;210.73;53.88;;;;;;;;;;4992824;28;20192;-44
2024/01/22 06:07:58;;;;;;;208.17;52.97;;;;;;;;;;4992865;28;20188;-44
2024/01/22 06:10:24;;;;;;;211.70;54.35;;;;;;;;;;4992348;28;20880;-44
2024/01/22 06:12:52;;;;;;;209.43;54.60;;;;;;;;;;4992620;28;20227;-44
2024/01/22 06:15:18;;;;;;;210.80;54.53;;;;;;;;;;4992788;28;20976;-45
2024/01/22 06:17:44;;;;;;;209.65;54.55;;;;;;;;;;4992873;28;20680;-44
2024/01/22 06:20:11;;;;;;;209.23;54.00;;;;;;;;;;4992502;28;20233;-44
2024/01/22 06:22:37;;;;;;;206.27;53.50;;;;;;;;;;4992543;28;20411;-45
2024/01/22 06:25:04;;;;;;;208.00;55.30;;;;;;;;;;4992585;28;20333;-44
2024/01/22 06:27:30;;;;;;;212.63;56.08;;;;;;;;;;4992467;28;20476;-44
2024/01/22 06:29:59;;;;;;;211.80;54.80;;;;;;;;;;4992185;28;20215;-44
2024/01/22 06:32:25;;;;;;;210.52;54.30;;;;;;;;;;4992424;28;20174;-44
2024/01/22 06:34:51;;;;;;;210.27;54.50;;;;;;;;;;4992562;28;20539;-44
2024/01/22 06:37:17;;;;;;;211.53;55.07;;;;;;;;;;4992792;28;20416;-44
2024/01/22 06:39:43;;;;;;;212.63;55.07;;;;;;;;;;4991933;28;20521;-45
2024/01/22 06:42:09;;;;;;;210.97;54.67;;;;;;;;;;4992157;28;20435;-44
2024/01/22 06:44:35;;;;;;;212.43;55.07;;;;;;;;;;5000040;28;20418;-45
2024/01/22 06:47:00;;;;;;;213.43;56.07;;;;;;;;;;4992288;28;20420;-44
2024/01/22 06:49:26;;;;;;;210.53;53.93;;;;;;;;;;4991945;28;20513;-45
2024/01/22 06:51:52;;;;;;;212.17;55.23;;;;;;;;;;4992230;28;20412;-45
2024/01/22 06:54:19;;;;;;;212.60;55.70;;;;;;;;;;4992260;28;20499;-44
2024/01/22 06:56:45;;;;;;;106.63;30.90;;;;;;;;;;4992197;28;20415;-44
2024/01/22 06:59:11;;;;;;;210.30;54.03;;;;;;;;;;4992032;28;20189;-44
2024/01/22 07:01:37;;;;;;;211.50;54.63;;;;;;;;;;4992062;28;20184;-44
2024/01/22 07:04:03;;;;;;;212.67;54.90;;;;;;;;;;4992292;28;20411;-44
2024/01/22 07:06:29;;;;;;;212.23;55.00;;;;;;;;;;4992127;28;20811;-44
2024/01/22 07:08:55;;;;;;;216.07;57.63;;;;;;;;;;4991735;28;20410;-44
2024/01/22 07:11:21;;;;;;;213.23;55.57;;;;;;;;;;4995330;28;20660;-44
2024/01/22 07:13:47;;;;;;;212.23;54.37;;;;;;;;;;4996235;28;20442;-44
2024/01/22 07:16:13;;;;;;;212.73;54.37;;;;;;;;;;4996094;28;20422;-44
2024/01/22 07:18:39;;;;;;;214.70;56.10;;;;;;;;;;4995992;28;20415;-44
2024/01/22 07:21:06;;;;;;;213.00;55.47;;;;;;;;;;4995755;28;20208;-44
2024/01/22 07:23:33;;;;;;;213.73;55.63;;;;;;;;;;4995938;28;20430;-44
2024/01/22 07:25:59;;;;;;;212.95;54.88;;;;;;;;;;4995845;28;20558;-44
2024/01/22 07:28:25;;;;;;;214.90;55.75;;;;;;;;;;4996234;28;20587;-44
2024/01/22 07:30:51;;;;;;;212.30;54.20;;;;;;;;;;4995597;28;20218;-44
2024/01/22 07:33:17;;;;;;;212.52;55.45;;;;;;;;;;4995695;28;20180;-44
2024/01/22 07:35:43;;;;;;;216.60;57.22;;;;;;;;;;4999429;28;20211;-44
2024/01/22 07:38:09;;;;;;;213.97;56.00;;;;;;;;;;4995252;28;20603;-44
2024/01/22 07:40:35;;;;;;;218.20;57.93;;;;;;;;;;5002316;28;20434;-44
2024/01/22 07:43:01;;;;;;;214.47;56.40;;;;;;;;;;4995183;28;20524;-44
2024/01/22 07:45:27;;;;;;;215.70;56.10;;;;;;;;;;4995156;28;20423;-44
2024/01/22 07:47:52;;;;;;;41.27;23.20;;;;;;;;;;4995102;28;20415;-45
2024/01/22 07:50:20;;;;;;;190.97;50.37;;;;;;;;;;4994763;28;20555;-44
2024/01/22 07:52:46;;;;;;;216.30;55.63;;;;;;;;;;4995737;28;20411;-44
2024/01/22 07:55:13;;;;;;;219.57;59.43;;;;;;;;;;4995102;28;20184;-44
2024/01/22 07:57:39;;;;;;;202.35;56.55;;;;;;;;;;4995229;28;20419;-45
2024/01/22 08:00:11;;;;;;;208.73;56.58;;;;;;;;;;4994955;28;20316;-45
2024/01/22 08:02:38;;;;;;;217.60;56.28;;;;;;;;;;4994723;28;20641;-45
2024/01/22 08:05:05;;;;;;;216.63;58.50;;;;;;;;;;4994524;28;20196;-45
2024/01/22 08:07:31;;;;;;;219.88;55.45;;;;;;;;;;4995004;28;20173;-45
2024/01/22 08:09:57;;;;;;;222.67;58.20;;;;;;;;;;4994404;28;20703;-45
2024/01/22 08:12:23;;;;;;;222.17;58.23;;;;;;;;;;4994891;28;20896;-45
2024/01/22 08:14:48;;;;;;;217.13;56.10;;;;;;;;;;4994716;28;20752;-45
2024/01/22 08:17:14;;;;;;;220.13;57.40;;;;;;;;;;4995057;28;20416;-45
2024/01/22 08:19:40;;;;;;;222.07;58.37;;;;;;;;;;4994557;28;21102;-45
2024/01/22 08:22:06;;;;;;;224.10;56.97;;;;;;;;;;4994378;28;20427;-46
2024/01/22 08:24:32;;;;;;;202.83;53.60;;;;;;;;;;4994655;28;20408;-45
2024/01/22 08:27:00;;;;;;;224.60;59.35;;;;;;;;;;4995023;28;20478;-45
2024/01/22 08:29:25;;;;;;;225.73;59.13;;;;;;;;;;4994314;28;20207;-45
2024/01/22 08:31:52;;;;;;;226.27;59.63;;;;;;;;;;4991199;28;20272;-44
2024/01/22 08:34:18;;;;;;;225.80;59.30;;;;;;;;;;4994399;28;20427;-45
2024/01/22 08:36:44;;;;;;;224.60;57.78;;;;;;;;;;4994630;28;20194;-45
2024/01/22 08:39:10;;;;;;;226.63;59.07;;;;;;;;;;4994382;28;20328;-44
2024/01/22 08:41:38;;;;;;;226.67;61.20;;;;;;;;;;4994019;28;20420;-45
2024/01/22 08:44:05;;;;;;;228.23;62.50;;;;;;;;;;4994372;28;20499;-44
2024/01/22 08:46:31;;;;;;;227.27;62.13;;;;;;;;;;4994384;28;20629;-46
2024/01/22 08:48:57;;;;;;;213.68;65.88;;;;;;;;;;4993933;28;20182;-45
2024/01/22 08:51:23;;;;;;;226.63;59.70;;;;;;;;;;4994173;28;20862;-44
2024/01/22 08:53:49;;;;;;;228.02;59.97;;;;;;;;;;4994224;28;20786;-44
2024/01/22 08:56:15;;;;;;;227.93;61.77;;;;;;;;;;4994329;28;20184;-44
2024/01/22 08:58:41;;;;;;;229.30;61.30;;;;;;;;;;4994018;28;20410;-45
2024/01/22 09:01:07;;;;;;;230.83;62.10;;;;;;;;;;4993920;28;20677;-44
2024/01/22 09:03:33;;;;;;;204.73;55.07;;;;;;;;;;4993997;28;20408;-44
2024/01/22 09:06:00;;;;;;;229.77;59.88;;;;;;;;;;4994211;28;20411;-44
2024/01/22 09:08:26;;;;;;;217.05;57.95;;;;;;;;;;4993904;28;20186;-45
2024/01/22 09:10:52;;;;;;;80.90;26.58;;;;;;;;;;4993652;28;20213;-44
2024/01/22 09:13:18;;;;;;;122.43;46.25;;;;;;;;;;4994086;28;20183;-43
2024/01/22 09:15:44;;;;;;;234.70;65.50;;;;;;;;;;4994078;28;20244;-44
2024/01/22 09:18:10;;;;;;;232.07;63.77;;;;;;;;;;4988711;28;20262;-44
2024/01/22 09:20:37;;;;;;;233.60;65.57;;;;;;;;;;4993239;28;20428;-46
2024/01/22 09:23:03;;;;;;;229.18;68.10;;;;;;;;;;4991398;28;20434;-44
2024/01/22 09:25:29;;;;;;;231.65;66.63;;;;;;;;;;4993996;28;20178;-43
2024/01/22 09:27:55;;;;;;;232.67;66.90;;;;;;;;;;4993904;28;20185;-43
2024/01/22 09:30:21;;;;;;;230.35;64.28;;;;;;;;;;4993464;28;20460;-44
2024/01/22 09:32:47;;;;;;;191.10;55.27;;;;;;;;;;4997357;28;20651;-43
2024/01/22 09:35:14;;;;;;;198.50;56.97;;;;;;;;;;4993544;28;20423;-44
2024/01/22 09:37:40;;;;;;;232.07;63.58;;;;;;;;;;4993553;28;20417;-43
2024/01/22 09:40:07;;;;;;;232.13;63.90;;;;;;;;;;4993272;28;20201;-43
2024/01/22 09:42:33;;;;;;;231.35;63.80;;;;;;;;;;4993455;28;20527;-43
2024/01/22 09:45:00;;;;;;;228.73;62.22;;;;;;;;;;4993319;28;20185;-43
2024/01/22 09:47:27;;;;;;;231.40;63.80;;;;;;;;;;4993431;28;20190;-43
2024/01/22 09:49:53;;;;;;;230.60;64.10;;;;;;;;;;4993182;28;20245;-43
2024/01/22 09:52:18;;;;;;;231.63;63.80;;;;;;;;;;4993270;28;20628;-44
2024/01/22 09:54:45;;;;;;;233.73;68.70;;;;;;;;;;4993181;28;20415;-44
2024/01/22 09:57:18;;;;;;;229.45;68.53;;;;;;;;;;4993039;28;20449;-44
2024/01/22 09:59:44;;;;;;;231.90;65.53;;;;;;;;;;4992798;28;20669;-43
2024/01/22 10:02:15;;;;;;;233.90;71.30;;;;;;;;;;4992720;28;20180;-43
2024/01/22 10:04:41;;;;;;;232.55;68.47;;;;;;;;;;4992759;28;20179;-44
2024/01/22 10:07:08;;;;;;;231.77;67.40;;;;;;;;;;4992819;28;20189;-44
2024/01/22 10:09:34;;;;;;;232.60;70.13;;;;;;;;;;4992705;28;20217;-44
2024/01/22 10:12:00;;;;;;;231.37;69.83;;;;;;;;;;4992722;28;20177;-44
2024/01/22 10:14:30;;;;;;;235.40;74.47;;;;;;;;;;4992729;28;20424;-42
2024/01/22 10:16:56;;;;;;;181.27;64.35;;;;;;;;;;4992638;28;20187;-44
2024/01/22 10:19:26;;;;;;;227.82;70.03;;;;;;;;;;4992382;28;20191;-43
2024/01/22 10:22:00;;;;;;;234.48;73.60;;;;;;;;;;4993281;28;20225;-45
2024/01/22 10:24:29;;;;;;;232.93;70.90;;;;;;;;;;4994711;28;20277;-46
2024/01/22 10:26:56;;;;;;;198.45;65.07;;;;;;;;;;4992493;28;20188;-43
2024/01/22 10:29:23;;;;;;;234.30;70.63;;;;;;;;;;4999758;28;20333;-44
2024/01/22 10:31:56;;;;;;;234.05;69.82;;;;;;;;;;4992362;28;20179;-44
2024/01/22 10:34:24;;;;;;;224.20;66.60;;;;;;;;;;4993739;28;20182;-44
2024/01/22 10:37:05;;;;;;;234.90;68.20;;;;;;;;;;4992534;28;20205;-44
2024/01/22 10:39:31;;;;;;;235.43;70.03;;;;;;;;;;4992064;28;20701;-44
2024/01/22 10:42:06;;;;;;;233.17;70.27;;;;;;;;;;4992553;28;20500;-43
2024/01/22 10:44:32;;;;;;;238.35;71.70;;;;;;;;;;4992362;28;20470;-44
2024/01/22 10:46:59;;;;;;;237.13;69.88;;;;;;;;;;4992602;28;20192;-44
2024/01/22 10:49:26;;;;;;;240.57;74.28;;;;;;;;;;4990548;28;20219;-44
2024/01/22 10:51:53;;;;;;;240.73;74.07;;;;;;;;;;4990337;28;20234;-44
2024/01/22 10:54:18;;;;;;;235.40;71.78;;;;;;;;;;4990894;28;20182;-44
2024/01/22 10:56:46;;;;;;;53.60;27.00;;;;;;;;;;4991137;28;20193;-43
2024/01/22 10:59:18;;;;;;;17.80;16.65;;;;;;;;;;4990608;28;20480;-44
2024/01/22 11:01:45;;;;;;;19.65;18.23;;;;;;;;;;4990760;28;20166;-44
2024/01/22 11:04:12;;;;;;;18.25;17.05;;;;;;;;;;4992088;28;20171;-44
2024/01/22 11:06:40;;;;;;;17.23;16.13;;;;;;;;;;4992516;28;20654;-44
2024/01/22 11:09:08;;;;;;;70.65;34.28;;;;;;;;;;4990415;28;20217;-44
2024/01/22 11:11:36;;;;;;;19.20;17.98;;;;;;;;;;4990735;28;20184;-44
2024/01/22 11:14:02;;;;;;;21.65;20.40;;;;;;;;;;4992229;28;20218;-44
2024/01/22 11:16:28;;;;;;;23.50;22.13;;;;;;;;;;4992042;28;20175;-44
2024/01/22 11:18:58;;;;;;;24.27;22.65;;;;;;;;;;4991774;28;20239;-44
2024/01/22 11:21:25;;;;;;;20.05;18.77;;;;;;;;;;4991775;28;20214;-44
2024/01/22 11:24:10;;;;;;;15.65;14.65;;;;;;;;;;4992070;28;20167;-44
2024/01/22 11:26:40;;;;;;;18.73;17.52;;;;;;;;;;4991960;28;20174;-44
2024/01/22 11:29:06;;;;;;;19.10;17.85;;;;;;;;;;4991129;28;20650;-43
2024/01/22 11:31:35;;;;;;;18.53;17.33;;;;;;;;;;4989901;28;20184;-44
2024/01/22 11:34:01;;;;;;;18.30;17.17;;;;;;;;;;4991895;28;20427;-43
2024/01/22 11:36:47;;;;;;;235.25;72.03;;;;;;;;;;4991826;28;20613;-42
2024/01/22 11:39:39;;;;;;;44.53;22.95;;;;;;;;;;4991558;28;20631;-43
2024/01/22 11:42:20;;;;;;;15.98;14.98;;;;;;;;;;4981959;28;20534;-44
2024/01/22 11:44:50;;;;;;;17.42;16.38;;;;;;;;;;4991196;28;20632;-43
2024/01/22 11:47:17;;;;;;;18.85;17.50;;;;;;;;;;4989987;28;20186;-43
2024/01/22 11:49:43;;;;;;;18.15;17.08;;;;;;;;;;4990941;28;20212;-43
2024/01/22 11:52:11;;;;;;;17.77;16.77;;;;;;;;;;4991800;28;20175;-43
2024/01/22 11:54:38;;;;;;;17.92;16.85;;;;;;;;;;4990548;28;20638;-43
2024/01/22 11:57:05;;;;;;;11.45;10.65;;;;;;;;;;4994243;28;20571;-44
2024/01/22 11:59:31;;;;;;;11.45;10.70;;;;;;;;;;4995032;28;20201;-43
2024/01/22 12:02:07;;;;;;;14.67;13.77;;;;;;;;;;4995361;28;20276;-43
2024/01/22 12:04:33;;;;;;;14.50;13.65;;;;;;;;;;4995132;28;20425;-43
2024/01/22 12:06:59;;;;;;;13.10;12.30;;;;;;;;;;4995192;28;20182;-44
2024/01/22 12:09:25;;;;;;;16.00;15.10;;;;;;;;;;4994586;28;20436;-44
2024/01/22 12:11:51;;;;;;;19.52;18.55;;;;;;;;;;4995014;28;20417;-44
2024/01/22 12:14:17;;;;;;;13.05;12.25;;;;;;;;;;4995026;28;20177;-44
2024/01/22 12:16:43;;;;;;;15.23;14.13;;;;;;;;;;4995021;28;20169;-45
2024/01/22 12:19:12;;;;;;;11.17;10.47;;;;;;;;;;4994668;28;20435;-45
2024/01/22 12:21:39;;;;;;;11.77;10.98;;;;;;;;;;4994771;28;21043;-44
2024/01/22 12:24:14;;;;;;;10.95;10.15;;;;;;;;;;4994837;28;20173;-43
2024/01/22 12:26:40;;;;;;;11.43;10.63;;;;;;;;;;4994637;28;20190;-44
2024/01/22 12:29:08;;;;;;;12.37;11.37;;;;;;;;;;4994479;28;20188;-44
2024/01/22 12:31:33;;;;;;;10.65;9.85;;;;;;;;;;4994632;28;20459;-44
2024/01/22 12:34:10;;;;;;;9.23;8.43;;;;;;;;;;4994698;28;20274;-44
2024/01/22 12:36:36;;;;;;;7.63;6.97;;;;;;;;;;4994573;28;20408;-44
2024/01/22 12:39:03;;;;;;;10.67;9.67;;;;;;;;;;4994408;28;20188;-44
2024/01/22 12:41:31;;;;;;;7.03;6.43;;;;;;;;;;4994244;28;20408;-44
2024/01/22 12:43:57;;;;;;;7.82;7.05;;;;;;;;;;4994451;28;20189;-44
2024/01/22 12:46:24;;;;;;;11.80;10.60;;;;;;;;;;4993224;28;20275;-44
2024/01/22 12:48:50;;;;;;;7.97;7.20;;;;;;;;;;4993897;28;20177;-44
2024/01/22 12:51:16;;;;;;;7.85;7.15;;;;;;;;;;4994252;28;20204;-44
2024/01/22 12:53:44;;;;;;;7.93;7.22;;;;;;;;;;4994557;28;20184;-44
2024/01/22 12:56:11;;;;;;;7.60;6.88;;;;;;;;;;4994560;28;20160;-44
2024/01/22 12:58:41;;;;;;;9.07;8.27;;;;;;;;;;4994319;28;20201;-44
2024/01/22 13:01:07;;;;;;;7.45;6.80;;;;;;;;;;4994013;28;20199;-43
2024/01/22 13:03:33;;;;;;;7.25;6.55;;;;;;;;;;4994425;28;20231;-44
2024/01/22 13:05:59;;;;;;;6.80;6.10;;;;;;;;;;4994127;28;20187;-44
2024/01/22 13:08:25;;;;;;;6.85;6.28;;;;;;;;;;4992821;28;20668;-44
2024/01/22 13:10:51;;;;;;;6.23;5.60;;;;;;;;;;4993643;28;20209;-43
2024/01/22 13:13:17;;;;;;;5.53;4.50;;;;;;;;;;4993909;28;20896;-43
2024/01/22 13:15:43;;;;;;;6.83;6.13;;;;;;;;;;4993904;28;20411;-43
2024/01/22 13:18:09;;;;;;;9.37;8.57;;;;;;;;;;4993714;28;20403;-44
2024/01/22 13:20:35;;;;;;;9.50;8.80;;;;;;;;;;4993636;28;20498;-43
2024/01/22 13:23:01;;;;;;;7.63;6.90;;;;;;;;;;4993786;28;20185;-43
2024/01/22 13:25:31;;;;;;;6.27;5.73;;;;;;;;;;4993745;28;20710;-43
2024/01/22 13:27:57;;;;;;;7.57;6.43;;;;;;;;;;4993684;28;20502;-44
2024/01/22 13:30:24;;;;;;;79.18;21.45;;;;;;;;;;4993150;28;20234;-44
2024/01/22 13:32:50;;;;;;;215.35;54.67;;;;;;;;;;4993427;28;20685;-43
2024/01/22 13:35:16;;;;;;;202.57;50.77;;;;;;;;;;4993541;28;20173;-44
2024/01/22 13:37:42;;;;;;;9.53;8.80;;;;;;;;;;4993582;28;20400;-44
2024/01/22 13:40:08;;;;;;;9.73;8.90;;;;;;;;;;4993134;28;20443;-44
2024/01/22 13:42:34;;;;;;;9.45;8.60;;;;;;;;;;4992915;28;20941;-43
2024/01/22 13:45:00;;;;;;;10.45;9.55;;;;;;;;;;4993091;28;20595;-44
2024/01/22 13:47:26;;;;;;;10.48;9.68;;;;;;;;;;4993157;28;20183;-44
2024/01/22 13:49:52;;;;;;;9.20;8.40;;;;;;;;;;4990175;28;20228;-44
2024/01/22 13:52:18;;;;;;;8.30;7.63;;;;;;;;;;4992799;28;20500;-44
2024/01/22 13:54:45;;;;;;;6.57;5.95;;;;;;;;;;4992143;28;20404;-44
2024/01/22 13:57:11;;;;;;;8.13;7.43;;;;;;;;;;4993054;28;20183;-44
2024/01/22 13:59:39;;;;;;;8.55;7.78;;;;;;;;;;4992500;28;20243;-43
2024/01/22 14:02:06;;;;;;;13.93;12.80;;;;;;;;;;4991583;28;20671;-43
2024/01/22 14:04:32;;;;;;;11.75;10.95;;;;;;;;;;4991494;28;20553;-44